createdAt,value
2017-01-13T00:00:43.052Z,0
2017-01-13T00:01:43.395Z,0
2017-01-13T00:02:42.581Z,0
2017-01-13T00:03:43.311Z,0
2017-01-13T00:04:43.275Z,0
2017-01-13T00:05:42.858Z,0
2017-01-13T00:06:43.194Z,0
2017-01-13T00:07:42.761Z,0
2017-01-13T00:08:43.110Z,0
2017-01-13T00:09:43.074Z,0
2017-01-13T00:10:43.584Z,0
2017-01-13T00:11:42.995Z,0
2017-01-13T00:12:42.945Z,0
2017-01-13T00:13:42.136Z,0
2017-01-13T00:14:42.892Z,0
2017-01-13T00:15:42.463Z,0
2017-01-13T00:16:42.788Z,0
2017-01-13T00:17:42.366Z,0
2017-01-13T00:18:42.708Z,0
2017-01-13T00:19:42.278Z,0
2017-01-13T00:20:42.621Z,0
2017-01-13T00:21:42.587Z,0
2017-01-13T00:22:42.541Z,0
2017-01-13T00:23:41.736Z,0
2017-01-13T00:24:42.461Z,0
2017-01-13T00:25:41.650Z,0
2017-01-13T00:26:42.388Z,0
2017-01-13T00:27:42.343Z,0
2017-01-13T00:28:41.912Z,0
2017-01-13T00:29:42.260Z,0
2017-01-13T00:30:42.224Z,0
2017-01-13T00:31:42.177Z,0
2017-01-13T00:32:41.749Z,0
2017-01-13T00:33:42.095Z,0
2017-01-13T00:34:42.056Z,0
2017-01-13T00:35:41.629Z,0
2017-01-13T00:36:41.591Z,0
2017-01-13T00:37:41.934Z,0
2017-01-13T00:38:41.893Z,0
2017-01-13T00:39:41.466Z,0
2017-01-13T00:40:41.426Z,0
2017-01-13T00:41:41.413Z,0
2017-01-13T00:42:41.346Z,0
2017-01-13T00:43:41.306Z,0
2017-01-13T00:44:41.649Z,0
2017-01-13T00:45:41.609Z,0
2017-01-13T00:46:41.575Z,0
2017-01-13T00:47:41.141Z,0
2017-01-13T00:48:41.491Z,0
2017-01-13T00:49:41.458Z,0
2017-01-13T00:50:41.403Z,0
2017-01-13T00:51:40.985Z,0
2017-01-13T00:52:41.327Z,0
2017-01-13T00:53:41.287Z,0
2017-01-13T00:54:41.244Z,0
2017-01-13T00:55:40.824Z,0
2017-01-13T00:56:41.170Z,0
2017-01-13T00:57:41.148Z,0
2017-01-13T00:58:41.222Z,0
2017-01-13T00:59:40.668Z,0
2017-01-13T01:00:40.618Z,0
2017-01-13T01:01:40.971Z,0
2017-01-13T01:02:40.538Z,0
2017-01-13T01:03:40.495Z,0
2017-01-13T01:04:40.475Z,0
2017-01-13T01:05:40.811Z,0
2017-01-13T01:06:40.373Z,0
2017-01-13T01:07:40.736Z,0
2017-01-13T01:08:40.294Z,0
2017-01-13T01:09:40.253Z,0
2017-01-13T01:10:40.602Z,0
2017-01-13T01:11:40.571Z,0
2017-01-13T01:12:40.145Z,0
2017-01-13T01:13:40.100Z,0
2017-01-13T01:14:40.439Z,0
2017-01-13T01:15:40.012Z,0
2017-01-13T01:16:39.975Z,0
2017-01-13T01:17:39.933Z,0
2017-01-13T01:18:40.288Z,0
2017-01-13T01:19:40.271Z,0
2017-01-13T01:20:40.197Z,0
2017-01-13T01:21:39.811Z,0
2017-01-13T01:22:40.114Z,0
2017-01-13T01:23:40.074Z,0
2017-01-13T01:24:39.649Z,0
2017-01-13T01:25:39.614Z,0
2017-01-13T01:26:39.187Z,0
2017-01-13T01:27:39.142Z,0
2017-01-13T01:28:39.896Z,0
2017-01-13T01:29:39.474Z,0
2017-01-13T01:30:39.409Z,0
2017-01-13T01:31:38.986Z,0
2017-01-13T01:32:38.972Z,0
2017-01-13T01:33:38.905Z,0
2017-01-13T01:34:39.631Z,0
2017-01-13T01:35:39.209Z,0
2017-01-13T01:36:38.783Z,0
2017-01-13T01:37:39.122Z,0
2017-01-13T01:38:39.481Z,0
2017-01-13T01:39:39.432Z,0
2017-01-13T01:40:39.388Z,0
2017-01-13T01:41:38.969Z,0
2017-01-13T01:42:39.332Z,0
2017-01-13T01:43:38.886Z,0
2017-01-13T01:44:38.467Z,0
2017-01-13T01:45:38.422Z,0
2017-01-13T01:46:38.767Z,0
2017-01-13T01:47:38.719Z,0
2017-01-13T01:48:38.313Z,0
2017-01-13T01:49:39.025Z,0
2017-01-13T01:50:38.985Z,0
2017-01-13T01:51:38.944Z,0
2017-01-13T01:52:38.903Z,0
2017-01-13T01:53:38.478Z,0
2017-01-13T01:54:38.823Z,0
2017-01-13T01:55:38.422Z,0
2017-01-13T01:56:38.742Z,0
2017-01-13T01:57:38.323Z,0
2017-01-13T01:58:38.668Z,0
2017-01-13T01:59:38.618Z,0
2017-01-13T02:00:38.580Z,0
2017-01-13T02:01:37.770Z,0
2017-01-13T02:02:38.112Z,0
2017-01-13T02:03:38.457Z,0
2017-01-13T02:04:38.414Z,0
2017-01-13T02:05:38.375Z,0
2017-01-13T02:06:37.952Z,0
2017-01-13T02:07:38.294Z,0
2017-01-13T02:08:37.872Z,0
2017-01-13T02:09:37.834Z,0
2017-01-13T02:10:38.214Z,0
2017-01-13T02:11:38.131Z,0
2017-01-13T02:12:38.104Z,0
2017-01-13T02:13:38.053Z,0
2017-01-13T02:14:38.008Z,0
2017-01-13T02:15:37.589Z,0
2017-01-13T02:16:37.930Z,0
2017-01-13T02:17:37.504Z,0
2017-01-13T02:18:37.873Z,0
2017-01-13T02:19:37.419Z,0
2017-01-13T02:20:37.766Z,0
2017-01-13T02:21:37.726Z,0
2017-01-13T02:22:37.687Z,0
2017-01-13T02:23:36.878Z,0
2017-01-13T02:24:37.607Z,0
2017-01-13T02:25:37.179Z,0
2017-01-13T02:26:36.754Z,0
2017-01-13T02:27:37.486Z,0
2017-01-13T02:28:37.053Z,0
2017-01-13T02:29:37.397Z,0
2017-01-13T02:30:37.363Z,0
2017-01-13T02:31:37.317Z,0
2017-01-13T02:32:36.515Z,0
2017-01-13T02:33:37.243Z,0
2017-01-13T02:34:36.815Z,0
2017-01-13T02:35:36.770Z,0
2017-01-13T02:36:37.113Z,0
2017-01-13T02:37:36.690Z,0
2017-01-13T02:38:37.031Z,0
2017-01-13T02:39:36.607Z,0
2017-01-13T02:40:36.954Z,0
2017-01-13T02:41:36.911Z,0
2017-01-13T02:42:36.097Z,0
2017-01-13T02:43:36.449Z,0
2017-01-13T02:44:36.785Z,0
2017-01-13T02:45:36.750Z,0
2017-01-13T02:46:36.704Z,0
2017-01-13T02:47:36.670Z,0
2017-01-13T02:48:36.237Z,0
2017-01-13T02:49:35.813Z,0
2017-01-13T02:50:36.162Z,0
2017-01-13T02:51:36.502Z,0
2017-01-13T02:52:36.458Z,0
2017-01-13T02:53:36.415Z,0
2017-01-13T02:54:36.377Z,0
2017-01-13T02:55:35.565Z,0
2017-01-13T02:56:35.911Z,0
2017-01-13T02:57:36.253Z,0
2017-01-13T02:58:36.215Z,0
2017-01-13T02:59:36.173Z,0
2017-01-13T03:00:35.769Z,0
2017-01-13T03:01:35.707Z,0
2017-01-13T03:02:35.657Z,0
2017-01-13T03:03:35.621Z,0
2017-01-13T03:04:35.582Z,0
2017-01-13T03:05:35.556Z,0
2017-01-13T03:06:35.499Z,0
2017-01-13T03:07:35.842Z,0
2017-01-13T03:08:35.804Z,0
2017-01-13T03:09:35.375Z,0
2017-01-13T03:10:35.722Z,0
2017-01-13T03:11:35.296Z,0
2017-01-13T03:12:35.259Z,0
2017-01-13T03:13:35.208Z,0
2017-01-13T03:14:35.168Z,0
2017-01-13T03:15:35.122Z,0
2017-01-13T03:16:35.086Z,0
2017-01-13T03:17:35.426Z,0
2017-01-13T03:18:35.007Z,0
2017-01-13T03:19:35.349Z,0
2017-01-13T03:20:34.536Z,0
2017-01-13T03:21:34.875Z,0
2017-01-13T03:22:35.226Z,0
2017-01-13T03:23:35.177Z,0
2017-01-13T03:24:35.145Z,0
2017-01-13T03:25:35.100Z,0
2017-01-13T03:26:35.060Z,0
2017-01-13T03:27:34.631Z,0
2017-01-13T03:28:34.969Z,0
2017-01-13T03:29:34.935Z,0
2017-01-13T03:30:34.510Z,0
2017-01-13T03:31:34.849Z,0
2017-01-13T03:32:34.432Z,0
2017-01-13T03:33:34.006Z,0
2017-01-13T03:34:34.727Z,0
2017-01-13T03:35:34.299Z,0
2017-01-13T03:36:34.258Z,0
2017-01-13T03:37:34.217Z,0
2017-01-13T03:38:34.558Z,0
2017-01-13T03:39:34.634Z,0
2017-01-13T03:40:33.320Z,0
2017-01-13T03:41:34.047Z,0
2017-01-13T03:42:34.009Z,0
2017-01-13T03:43:34.353Z,0
2017-01-13T03:44:33.936Z,0
2017-01-13T03:45:34.278Z,0
2017-01-13T03:46:33.460Z,0
2017-01-13T03:47:34.186Z,0
2017-01-13T03:48:33.756Z,0
2017-01-13T03:49:34.102Z,0
2017-01-13T03:50:34.059Z,0
2017-01-13T03:51:34.020Z,0
2017-01-13T03:52:33.206Z,0
2017-01-13T03:53:33.936Z,0
2017-01-13T03:54:33.894Z,0
2017-01-13T03:55:33.854Z,0
2017-01-13T03:56:33.428Z,0
2017-01-13T03:57:33.770Z,0
2017-01-13T03:58:32.577Z,0
2017-01-13T03:59:33.300Z,0
2017-01-13T04:00:33.260Z,0
2017-01-13T04:01:33.619Z,0
2017-01-13T04:02:33.569Z,0
2017-01-13T04:03:33.524Z,0
2017-01-13T04:04:32.705Z,0
2017-01-13T04:05:33.051Z,0
2017-01-13T04:06:33.017Z,0
2017-01-13T04:07:32.609Z,0
2017-01-13T04:08:33.317Z,0
2017-01-13T04:09:33.270Z,0
2017-01-13T04:10:33.232Z,0
2017-01-13T04:11:32.811Z,0
2017-01-13T04:12:32.761Z,0
2017-01-13T04:13:33.103Z,0
2017-01-13T04:14:32.300Z,0
2017-01-13T04:15:32.638Z,0
2017-01-13T04:16:32.982Z,0
2017-01-13T04:17:32.941Z,0
2017-01-13T04:18:32.534Z,0
2017-01-13T04:19:32.857Z,0
2017-01-13T04:20:32.841Z,0
2017-01-13T04:21:32.785Z,0
2017-01-13T04:22:32.732Z,0
2017-01-13T04:23:32.304Z,0
2017-01-13T04:24:31.880Z,0
2017-01-13T04:25:31.443Z,0
2017-01-13T04:26:32.177Z,0
2017-01-13T04:27:32.524Z,0
2017-01-13T04:28:32.109Z,0
2017-01-13T04:29:32.440Z,0
2017-01-13T04:30:32.402Z,0
2017-01-13T04:31:32.362Z,0
2017-01-13T04:32:32.310Z,0
2017-01-13T04:33:31.889Z,0
2017-01-13T04:34:31.844Z,0
2017-01-13T04:35:32.194Z,0
2017-01-13T04:36:31.763Z,0
2017-01-13T04:37:32.123Z,0
2017-01-13T04:38:31.681Z,0
2017-01-13T04:39:32.021Z,0
2017-01-13T04:40:31.608Z,0
2017-01-13T04:41:31.935Z,0
2017-01-13T04:42:31.896Z,0
2017-01-13T04:43:31.470Z,0
2017-01-13T04:44:31.432Z,0
2017-01-13T04:45:31.383Z,0
2017-01-13T04:46:31.730Z,0
2017-01-13T04:47:31.686Z,0
2017-01-13T04:48:31.259Z,0
2017-01-13T04:49:31.603Z,0
2017-01-13T04:50:30.409Z,0
2017-01-13T04:51:31.136Z,0
2017-01-13T04:52:30.707Z,0
2017-01-13T04:53:31.437Z,0
2017-01-13T04:54:30.627Z,0
2017-01-13T04:55:31.370Z,0
2017-01-13T04:56:30.925Z,0
2017-01-13T04:57:30.893Z,0
2017-01-13T04:58:31.226Z,0
2017-01-13T04:59:30.798Z,0
2017-01-13T05:00:30.372Z,0
2017-01-13T05:01:31.105Z,0
2017-01-13T05:02:30.673Z,0
2017-01-13T05:03:31.015Z,0
2017-01-13T05:04:30.972Z,0
2017-01-13T05:05:30.936Z,0
2017-01-13T05:06:30.902Z,0
2017-01-13T05:07:30.848Z,0
2017-01-13T05:08:30.040Z,0
2017-01-13T05:09:30.374Z,0
2017-01-13T05:10:30.720Z,0
2017-01-13T05:11:29.919Z,0
2017-01-13T05:12:30.639Z,0
2017-01-13T05:13:30.597Z,0
2017-01-13T05:14:30.558Z,0
2017-01-13T05:15:30.128Z,0
2017-01-13T05:16:30.471Z,0
2017-01-13T05:17:29.659Z,0
2017-01-13T05:18:30.001Z,0
2017-01-13T05:19:29.957Z,0
2017-01-13T05:20:30.301Z,0
2017-01-13T05:21:29.873Z,0
2017-01-13T05:22:30.219Z,0
2017-01-13T05:23:29.402Z,0
2017-01-13T05:24:29.362Z,0
2017-01-13T05:25:30.092Z,0
2017-01-13T05:26:30.047Z,0
2017-01-13T05:27:30.034Z,0
2017-01-13T05:28:29.583Z,0
2017-01-13T05:29:29.149Z,0
2017-01-13T05:30:29.496Z,0
2017-01-13T05:31:29.863Z,0
2017-01-13T05:32:29.410Z,0
2017-01-13T05:33:29.751Z,0
2017-01-13T05:34:29.710Z,0
2017-01-13T05:35:29.680Z,0
2017-01-13T05:36:29.243Z,0
2017-01-13T05:37:29.583Z,0
2017-01-13T05:38:29.156Z,0
2017-01-13T05:39:29.502Z,0
2017-01-13T05:40:29.067Z,0
2017-01-13T05:41:28.647Z,0
2017-01-13T05:42:29.371Z,0
2017-01-13T05:43:28.949Z,0
2017-01-13T05:44:28.518Z,0
2017-01-13T05:45:29.245Z,0
2017-01-13T05:46:29.204Z,0
2017-01-13T05:47:28.780Z,0
2017-01-13T05:48:29.121Z,0
2017-01-13T05:49:29.073Z,0
2017-01-13T05:50:29.033Z,0
2017-01-13T05:51:28.610Z,0
2017-01-13T05:52:28.948Z,0
2017-01-13T05:53:28.522Z,0
2017-01-13T05:54:28.485Z,0
2017-01-13T05:55:28.439Z,0
2017-01-13T05:56:28.400Z,0
2017-01-13T05:57:28.356Z,0
2017-01-13T05:58:28.316Z,0
2017-01-13T05:59:28.656Z,0
2017-01-13T06:00:28.610Z,0
2017-01-13T06:01:28.195Z,0
2017-01-13T06:02:28.143Z,0
2017-01-13T06:03:28.493Z,0
2017-01-13T06:04:28.449Z,0
2017-01-13T06:05:28.017Z,0
2017-01-13T06:06:27.976Z,0
2017-01-13T06:07:28.321Z,0
2017-01-13T06:08:28.276Z,0
2017-01-13T06:09:27.845Z,0
2017-01-13T06:10:27.805Z,0
2017-01-13T06:11:28.156Z,0
2017-01-13T06:12:28.104Z,0
2017-01-13T06:13:28.068Z,0
2017-01-13T06:14:28.023Z,0
2017-01-13T06:15:27.592Z,0
2017-01-13T06:16:27.552Z,0
2017-01-13T06:17:27.516Z,0
2017-01-13T06:18:27.855Z,0
2017-01-13T06:19:27.428Z,0
2017-01-13T06:20:27.767Z,0
2017-01-13T06:21:27.341Z,0
2017-01-13T06:22:27.312Z,0
2017-01-13T06:23:27.644Z,0
2017-01-13T06:24:27.215Z,0
2017-01-13T06:25:27.174Z,0
2017-01-13T06:26:27.515Z,0
2017-01-13T06:27:26.708Z,0
2017-01-13T06:28:27.434Z,0
2017-01-13T06:29:27.036Z,0
2017-01-13T06:30:27.350Z,0
2017-01-13T06:31:27.334Z,0
2017-01-13T06:32:27.261Z,0
2017-01-13T06:33:27.245Z,0
2017-01-13T06:34:27.178Z,0
2017-01-13T06:35:27.134Z,0
2017-01-13T06:36:27.097Z,0
2017-01-13T06:37:27.049Z,4
2017-01-13T06:38:26.620Z,4
2017-01-13T06:39:26.964Z,4
2017-01-13T06:40:26.923Z,0
2017-01-13T06:41:26.113Z,4
2017-01-13T06:42:26.844Z,4
2017-01-13T06:43:26.411Z,4
2017-01-13T06:44:26.752Z,8
2017-01-13T06:45:26.731Z,8
2017-01-13T06:46:26.288Z,8
2017-01-13T06:47:26.249Z,12
2017-01-13T06:48:26.196Z,12
2017-01-13T06:49:26.548Z,16
2017-01-13T06:50:26.497Z,16
2017-01-13T06:51:26.462Z,20
2017-01-13T06:52:26.031Z,20
2017-01-13T06:53:25.984Z,20
2017-01-13T06:54:26.336Z,24
2017-01-13T06:55:25.908Z,24
2017-01-13T06:56:25.865Z,28
2017-01-13T06:57:25.816Z,28
2017-01-13T06:58:26.166Z,32
2017-01-13T06:59:26.118Z,36
2017-01-13T07:00:26.071Z,40
2017-01-13T07:01:26.040Z,48
2017-01-13T07:02:25.604Z,56
2017-01-13T07:03:25.947Z,64
2017-01-13T07:04:25.912Z,72
2017-01-13T07:05:25.478Z,84
2017-01-13T07:06:25.822Z,92
2017-01-13T07:07:25.008Z,96
2017-01-13T07:08:25.759Z,100
2017-01-13T07:09:24.925Z,108
2017-01-13T07:10:25.270Z,116
2017-01-13T07:11:25.232Z,124
2017-01-13T07:12:25.572Z,124
2017-01-13T07:13:25.527Z,128
2017-01-13T07:14:25.483Z,140
2017-01-13T07:15:25.055Z,148
2017-01-13T07:16:25.399Z,160
2017-01-13T07:17:24.976Z,168
2017-01-13T07:18:25.315Z,184
2017-01-13T07:19:24.895Z,188
2017-01-13T07:20:25.227Z,184
2017-01-13T07:21:24.448Z,196
2017-01-13T07:22:24.375Z,208
2017-01-13T07:23:24.720Z,204
2017-01-13T07:24:24.289Z,212
2017-01-13T07:25:24.641Z,228
2017-01-13T07:26:24.978Z,236
2017-01-13T07:27:24.549Z,228
2017-01-13T07:28:24.887Z,232
2017-01-13T07:29:24.853Z,236
2017-01-13T07:30:24.033Z,260
2017-01-13T07:31:23.994Z,288
2017-01-13T07:32:24.340Z,324
2017-01-13T07:33:24.302Z,348
2017-01-13T07:34:24.251Z,368
2017-01-13T07:35:24.212Z,380
2017-01-13T07:36:24.177Z,400
2017-01-13T07:37:24.129Z,404
2017-01-13T07:38:24.498Z,396
2017-01-13T07:39:24.427Z,396
2017-01-13T07:40:24.388Z,436
2017-01-13T07:41:24.350Z,508
2017-01-13T07:42:23.915Z,560
2017-01-13T07:43:24.264Z,620
2017-01-13T07:44:23.483Z,672
2017-01-13T07:45:24.176Z,724
2017-01-13T07:46:23.754Z,760
2017-01-13T07:47:24.100Z,804
2017-01-13T07:48:23.277Z,840
2017-01-13T07:49:23.619Z,928
2017-01-13T07:50:23.194Z,1124
2017-01-13T07:51:23.543Z,1384
2017-01-13T07:52:23.881Z,1656
2017-01-13T07:53:23.847Z,1900
2017-01-13T07:54:23.424Z,2076
2017-01-13T07:55:23.751Z,2184
2017-01-13T07:56:23.715Z,2268
2017-01-13T07:57:23.672Z,2320
2017-01-13T07:58:23.626Z,2372
2017-01-13T07:59:23.203Z,2456
2017-01-13T08:00:23.155Z,2520
2017-01-13T08:01:23.118Z,2556
2017-01-13T08:02:23.080Z,2572
2017-01-13T08:03:23.419Z,2568
2017-01-13T08:04:23.376Z,2536
2017-01-13T08:05:23.336Z,2512
2017-01-13T08:06:23.291Z,2464
2017-01-13T08:07:22.863Z,2556
2017-01-13T08:08:22.826Z,2700
2017-01-13T08:09:23.168Z,2908
2017-01-13T08:10:23.125Z,3044
2017-01-13T08:11:23.082Z,3272
2017-01-13T08:12:22.656Z,3548
2017-01-13T08:13:22.995Z,3788
2017-01-13T08:14:22.956Z,3536
2017-01-13T08:15:22.526Z,3748
2017-01-13T08:16:22.101Z,3940
2017-01-13T08:17:22.833Z,4112
2017-01-13T08:18:22.815Z,4104
2017-01-13T08:19:22.745Z,4052
2017-01-13T08:20:22.706Z,3920
2017-01-13T08:21:22.280Z,3784
2017-01-13T08:22:22.622Z,3636
2017-01-13T08:23:22.189Z,3572
2017-01-13T08:24:21.760Z,3604
2017-01-13T08:25:22.108Z,3688
2017-01-13T08:26:22.905Z,3760
2017-01-13T08:27:23.915Z,3792
2017-01-13T08:28:21.979Z,3708
2017-01-13T08:29:22.328Z,3588
2017-01-13T08:30:21.897Z,3424
2017-01-13T08:31:21.474Z,3260
2017-01-13T08:32:22.204Z,3044
2017-01-13T08:33:21.775Z,2876
2017-01-13T08:34:22.112Z,2720
2017-01-13T08:35:22.071Z,2616
2017-01-13T08:36:21.649Z,2508
2017-01-13T08:37:21.606Z,2440
2017-01-13T08:38:20.794Z,2460
2017-01-13T08:39:21.908Z,2548
2017-01-13T08:40:21.479Z,2688
2017-01-13T08:41:21.825Z,2848
2017-01-13T08:42:21.417Z,2992
2017-01-13T08:43:20.972Z,3068
2017-01-13T08:44:20.926Z,3124
2017-01-13T08:45:21.268Z,3128
2017-01-13T08:46:21.616Z,3156
2017-01-13T08:47:21.183Z,3212
2017-01-13T08:48:21.527Z,3324
2017-01-13T08:49:21.099Z,3500
2017-01-13T08:50:21.444Z,3632
2017-01-13T08:51:21.012Z,3708
2017-01-13T08:52:20.974Z,3864
2017-01-13T08:53:20.933Z,3996
2017-01-13T08:54:20.891Z,4092
2017-01-13T08:55:21.230Z,4116
2017-01-13T08:56:20.419Z,4200
2017-01-13T08:57:21.148Z,4276
2017-01-13T08:58:21.106Z,4276
2017-01-13T08:59:20.707Z,4408
2017-01-13T09:00:20.634Z,4604
2017-01-13T09:01:20.601Z,4792
2017-01-13T09:02:20.551Z,5012
2017-01-13T09:03:20.901Z,5100
2017-01-13T09:04:20.851Z,5244
2017-01-13T09:05:20.423Z,5300
2017-01-13T09:06:20.764Z,5464
2017-01-13T09:07:20.338Z,5576
2017-01-13T09:08:20.291Z,5680
2017-01-13T09:09:20.254Z,6088
2017-01-13T09:10:20.210Z,6332
2017-01-13T09:11:20.578Z,6652
2017-01-13T09:12:19.744Z,6884
2017-01-13T09:13:20.094Z,7032
2017-01-13T09:14:20.045Z,7084
2017-01-13T09:15:20.011Z,7084
2017-01-13T09:16:20.360Z,6976
2017-01-13T09:17:19.920Z,6824
2017-01-13T09:18:20.265Z,6736
2017-01-13T09:19:20.219Z,6756
2017-01-13T09:20:20.177Z,6508
2017-01-13T09:21:21.145Z,6128
2017-01-13T09:22:19.324Z,5844
2017-01-13T09:23:18.899Z,5632
2017-01-13T09:24:20.013Z,5232
2017-01-13T09:25:19.989Z,4952
2017-01-13T09:26:19.545Z,4764
2017-01-13T09:27:19.882Z,4668
2017-01-13T09:28:19.461Z,4916
2017-01-13T09:29:19.800Z,4688
2017-01-13T09:30:19.760Z,4444
2017-01-13T09:31:19.721Z,4296
2017-01-13T09:32:19.685Z,3816
2017-01-13T09:33:19.634Z,3212
2017-01-13T09:34:19.210Z,3168
2017-01-13T09:35:19.560Z,3048
2017-01-13T09:36:19.127Z,2856
2017-01-13T09:37:19.469Z,2852
2017-01-13T09:38:19.429Z,2948
2017-01-13T09:39:18.621Z,2824
2017-01-13T09:40:19.345Z,2416
2017-01-13T09:41:19.345Z,2184
2017-01-13T09:42:18.876Z,2156
2017-01-13T09:43:18.845Z,2052
2017-01-13T09:44:19.176Z,1980
2017-01-13T09:45:19.142Z,1980
2017-01-13T09:46:18.708Z,2240
2017-01-13T09:47:19.053Z,2676
2017-01-13T09:48:19.052Z,2596
2017-01-13T09:49:18.589Z,2468
2017-01-13T09:50:18.577Z,2640
2017-01-13T09:51:18.891Z,2988
2017-01-13T09:52:18.464Z,3224
2017-01-13T09:53:18.035Z,2584
2017-01-13T09:54:18.765Z,2828
2017-01-13T09:55:18.720Z,2808
2017-01-13T09:56:17.942Z,2576
2017-01-13T09:57:18.636Z,2816
2017-01-13T09:58:18.598Z,3428
2017-01-13T09:59:18.558Z,4760
2017-01-13T10:00:18.128Z,5684
2017-01-13T10:01:18.467Z,6480
2017-01-13T10:02:18.427Z,6792
2017-01-13T10:03:18.005Z,6864
2017-01-13T10:04:18.381Z,6532
2017-01-13T10:05:17.919Z,6908
2017-01-13T10:06:17.879Z,7472
2017-01-13T10:07:18.219Z,8036
2017-01-13T10:08:17.022Z,8684
2017-01-13T10:09:17.753Z,9412
2017-01-13T10:10:18.114Z,9920
2017-01-13T10:11:18.061Z,10404
2017-01-13T10:12:18.015Z,10816
2017-01-13T10:13:17.590Z,10864
2017-01-13T10:14:17.555Z,11000
2017-01-13T10:15:17.889Z,11104
2017-01-13T10:16:17.464Z,11120
2017-01-13T10:17:17.418Z,11920
2017-01-13T10:18:17.383Z,11120
2017-01-13T10:19:17.336Z,11100
2017-01-13T10:20:17.689Z,10804
2017-01-13T10:21:17.259Z,10428
2017-01-13T10:22:17.603Z,9768
2017-01-13T10:23:17.190Z,9872
2017-01-13T10:24:17.520Z,9912
2017-01-13T10:25:17.093Z,9800
2017-01-13T10:26:17.051Z,9648
2017-01-13T10:27:17.014Z,9456
2017-01-13T10:28:16.979Z,9380
2017-01-13T10:29:17.316Z,8548
2017-01-13T10:30:16.502Z,8464
2017-01-13T10:31:17.236Z,8948
2017-01-13T10:32:16.427Z,8676
2017-01-13T10:33:16.772Z,8184
2017-01-13T10:34:17.118Z,8028
2017-01-13T10:35:16.301Z,7636
2017-01-13T10:36:16.649Z,8732
2017-01-13T10:37:17.018Z,8724
2017-01-13T10:38:16.949Z,8876
2017-01-13T10:39:16.525Z,10000
2017-01-13T10:40:16.483Z,11100
2017-01-13T10:41:16.839Z,14604
2017-01-13T10:42:16.791Z,14476
2017-01-13T10:43:16.382Z,13752
2017-01-13T10:44:16.326Z,14448
2017-01-13T10:45:16.670Z,14936
2017-01-13T10:46:16.631Z,15012
2017-01-13T10:47:15.819Z,13520
2017-01-13T10:48:16.167Z,13656
2017-01-13T10:49:16.509Z,14824
2017-01-13T10:50:16.087Z,17216
2017-01-13T10:51:16.047Z,17024
2017-01-13T10:52:16.006Z,15804
2017-01-13T10:53:16.355Z,17312
2017-01-13T10:54:15.926Z,21440
2017-01-13T10:55:15.896Z,23392
2017-01-13T10:56:16.241Z,23104
2017-01-13T10:57:15.808Z,20448
2017-01-13T10:58:15.774Z,23808
2017-01-13T10:59:16.125Z,23104
2017-01-13T11:00:15.316Z,22112
2017-01-13T11:01:15.272Z,22304
2017-01-13T11:02:16.011Z,24576
2017-01-13T11:03:15.970Z,26432
2017-01-13T11:04:15.931Z,28000
2017-01-13T11:05:15.894Z,23616
2017-01-13T11:06:15.868Z,24096
2017-01-13T11:07:15.051Z,24576
2017-01-13T11:08:15.786Z,20192
2017-01-13T11:09:15.399Z,25824
2017-01-13T11:10:15.708Z,21792
2017-01-13T11:11:15.677Z,11752
2017-01-13T11:12:15.634Z,11000
2017-01-13T11:13:15.600Z,11492
2017-01-13T11:14:15.566Z,13196
2017-01-13T11:15:15.142Z,10184
2017-01-13T11:16:15.106Z,9336
2017-01-13T11:17:15.453Z,7916
2017-01-13T11:18:15.416Z,6788
2017-01-13T11:19:15.380Z,6280
2017-01-13T11:20:15.342Z,6064
2017-01-13T11:21:14.929Z,5912
2017-01-13T11:22:14.884Z,6272
2017-01-13T11:23:14.463Z,6500
2017-01-13T11:24:14.808Z,5584
2017-01-13T11:25:14.775Z,5196
2017-01-13T11:26:14.750Z,4996
2017-01-13T11:27:15.077Z,4868
2017-01-13T11:28:14.655Z,5264
2017-01-13T11:29:14.618Z,4840
2017-01-13T11:30:14.964Z,4508
2017-01-13T11:31:14.159Z,4164
2017-01-13T11:32:14.882Z,3892
2017-01-13T11:33:14.471Z,3620
2017-01-13T11:34:14.809Z,3756
2017-01-13T11:35:14.782Z,3884
2017-01-13T11:36:14.749Z,4104
2017-01-13T11:37:13.959Z,3816
2017-01-13T11:38:14.271Z,4168
2017-01-13T11:39:14.613Z,5480
2017-01-13T11:40:14.606Z,6472
2017-01-13T11:41:14.540Z,6124
2017-01-13T11:42:14.112Z,5804
2017-01-13T11:43:14.460Z,6776
2017-01-13T11:44:14.425Z,7840
2017-01-13T11:45:14.377Z,8276
2017-01-13T11:46:14.352Z,8436
2017-01-13T11:47:14.309Z,9432
2017-01-13T11:48:14.263Z,9028
2017-01-13T11:49:13.834Z,8744
2017-01-13T11:50:14.182Z,8208
2017-01-13T11:51:13.753Z,7604
2017-01-13T11:52:14.100Z,7120
2017-01-13T11:53:14.064Z,5640
2017-01-13T11:54:13.639Z,4620
2017-01-13T11:55:13.248Z,4228
2017-01-13T11:56:13.948Z,3972
2017-01-13T11:57:13.903Z,4064
2017-01-13T11:58:13.859Z,4452
2017-01-13T11:59:13.825Z,4012
2017-01-13T12:00:13.396Z,3472
2017-01-13T12:01:13.360Z,2780
2017-01-13T12:02:12.940Z,2344
2017-01-13T12:03:13.664Z,2184
2017-01-13T12:04:13.244Z,2072
2017-01-13T12:05:12.811Z,1900
2017-01-13T12:06:12.769Z,1764
2017-01-13T12:07:13.511Z,1852
2017-01-13T12:08:13.079Z,1972
2017-01-13T12:09:12.653Z,2052
2017-01-13T12:10:12.995Z,2496
2017-01-13T12:11:12.571Z,2568
2017-01-13T12:12:12.913Z,2460
2017-01-13T12:13:12.495Z,2412
2017-01-13T12:14:13.223Z,2504
2017-01-13T12:15:13.184Z,2756
2017-01-13T12:16:12.746Z,2972
2017-01-13T12:17:12.326Z,3248
2017-01-13T12:18:13.056Z,3444
2017-01-13T12:19:12.628Z,3908
2017-01-13T12:20:12.974Z,4260
2017-01-13T12:21:12.933Z,4704
2017-01-13T12:22:12.890Z,4844
2017-01-13T12:23:12.469Z,4844
2017-01-13T12:24:12.427Z,4864
2017-01-13T12:25:12.384Z,5096
2017-01-13T12:26:12.734Z,5140
2017-01-13T12:27:11.534Z,5316
2017-01-13T12:28:12.672Z,5400
2017-01-13T12:29:11.453Z,5928
2017-01-13T12:30:12.180Z,6884
2017-01-13T12:31:12.140Z,7004
2017-01-13T12:32:12.498Z,6796
2017-01-13T12:33:12.054Z,7096
2017-01-13T12:34:12.013Z,7324
2017-01-13T12:35:12.360Z,7736
2017-01-13T12:36:11.940Z,8056
2017-01-13T12:37:11.897Z,8616
2017-01-13T12:38:11.865Z,8684
2017-01-13T12:39:11.812Z,7828
2017-01-13T12:40:12.159Z,7444
2017-01-13T12:41:12.114Z,7528
2017-01-13T12:42:11.306Z,7372
2017-01-13T12:43:11.266Z,7836
2017-01-13T12:44:11.992Z,7976
2017-01-13T12:45:11.588Z,7824
2017-01-13T12:46:11.534Z,8052
2017-01-13T12:47:11.118Z,7696
2017-01-13T12:48:11.831Z,7632
2017-01-13T12:49:11.407Z,7408
2017-01-13T12:50:11.752Z,7800
2017-01-13T12:51:11.708Z,8844
2017-01-13T12:52:11.670Z,9724
2017-01-13T12:53:11.251Z,10044
2017-01-13T12:54:10.821Z,9756
2017-01-13T12:55:11.158Z,8760
2017-01-13T12:56:11.119Z,7444
2017-01-13T12:57:11.473Z,6380
2017-01-13T12:58:11.437Z,5428
2017-01-13T12:59:11.411Z,4452
2017-01-13T13:00:11.347Z,3972
2017-01-13T13:01:11.314Z,2904
2017-01-13T13:02:11.265Z,2004
2017-01-13T13:03:10.453Z,1484
2017-01-13T13:04:10.797Z,852
2017-01-13T13:05:10.757Z,496
2017-01-13T13:06:10.719Z,552
2017-01-13T13:07:11.063Z,728
2017-01-13T13:08:10.257Z,1008
2017-01-13T13:09:10.990Z,1216
2017-01-13T13:10:10.559Z,1544
2017-01-13T13:11:10.904Z,1904
2017-01-13T13:12:10.484Z,2184
2017-01-13T13:13:10.059Z,2328
2017-01-13T13:14:10.787Z,2396
2017-01-13T13:15:10.355Z,2364
2017-01-13T13:16:10.326Z,2328
2017-01-13T13:17:10.282Z,2296
2017-01-13T13:18:09.848Z,2156
2017-01-13T13:19:09.805Z,2080
2017-01-13T13:20:10.548Z,2008
2017-01-13T13:21:10.498Z,1948
2017-01-13T13:22:10.099Z,1920
2017-01-13T13:23:10.416Z,1904
2017-01-13T13:24:10.379Z,1928
2017-01-13T13:25:09.555Z,1964
2017-01-13T13:26:09.524Z,1972
2017-01-13T13:27:10.253Z,1960
2017-01-13T13:28:09.829Z,1924
2017-01-13T13:29:09.399Z,1848
2017-01-13T13:30:10.143Z,1788
2017-01-13T13:31:10.093Z,1672
2017-01-13T13:32:09.674Z,1624
2017-01-13T13:33:09.997Z,1652
2017-01-13T13:34:09.984Z,1732
2017-01-13T13:35:09.922Z,1864
2017-01-13T13:36:09.888Z,1888
2017-01-13T13:37:09.452Z,1864
2017-01-13T13:38:09.795Z,1844
2017-01-13T13:39:09.366Z,1852
2017-01-13T13:40:09.709Z,1872
2017-01-13T13:41:09.675Z,1892
2017-01-13T13:42:09.632Z,1904
2017-01-13T13:43:08.833Z,1880
2017-01-13T13:44:09.562Z,1860
2017-01-13T13:45:09.148Z,1832
2017-01-13T13:46:09.463Z,1800
2017-01-13T13:47:09.037Z,1764
2017-01-13T13:48:09.379Z,1756
2017-01-13T13:49:09.329Z,1756
2017-01-13T13:50:08.907Z,1756
2017-01-13T13:51:08.870Z,1780
2017-01-13T13:52:08.432Z,1812
2017-01-13T13:53:08.399Z,1852
2017-01-13T13:54:09.125Z,1936
2017-01-13T13:55:09.083Z,2152
2017-01-13T13:56:08.273Z,2444
2017-01-13T13:57:08.996Z,2504
2017-01-13T13:58:08.571Z,2408
2017-01-13T13:59:08.525Z,2320
2017-01-13T14:00:08.875Z,2292